createdAt,value
2018-04-16T00:01:29.212Z,37.43
2018-04-16T00:06:45.409Z,37.87
2018-04-16T00:09:14.047Z,35.53
2018-04-16T00:11:42.650Z,36.93
2018-04-16T00:14:11.294Z,38.07
2018-04-16T00:16:39.900Z,37.93
2018-04-16T00:19:08.501Z,34.63
2018-04-16T00:21:37.133Z,38.50
2018-04-16T00:24:05.738Z,37.27
2018-04-16T00:26:34.367Z,34.60
2018-04-16T00:29:02.965Z,38.30
2018-04-16T00:31:49.573Z,38.73
2018-04-16T00:34:36.226Z,34.20
2018-04-16T00:37:22.842Z,35.07
2018-04-16T00:43:04.711Z,38.00
2018-04-16T00:45:51.131Z,38.70
2018-04-16T00:48:37.775Z,39.97
2018-04-16T00:51:32.337Z,37.90
2018-04-16T00:54:37.304Z,38.57
2018-04-16T00:57:24.339Z,40.07
2018-04-16T01:00:11.060Z,37.07
2018-04-16T01:02:57.606Z,46.42
2018-04-16T01:05:32.519Z,41.37
2018-04-16T01:08:18.987Z,47.85
2018-04-16T01:11:05.550Z,43.57
2018-04-16T01:13:52.108Z,38.30
2018-04-16T01:16:39.030Z,42.07
2018-04-16T01:19:25.608Z,41.90
2018-04-16T01:22:12.461Z,42.13
2018-04-16T01:24:59.245Z,40.73
2018-04-16T01:27:45.953Z,40.30
2018-04-16T01:30:32.609Z,40.57
2018-04-16T01:33:19.136Z,44.13
2018-04-16T01:36:05.959Z,48.35
2018-04-16T01:38:52.832Z,42.13
2018-04-16T01:41:39.671Z,43.17
2018-04-16T01:44:26.218Z,43.07
2018-04-16T01:47:12.717Z,39.37
2018-04-16T01:49:59.383Z,44.20
2018-04-16T01:52:45.937Z,42.73
2018-04-16T01:55:32.527Z,43.60
2018-04-16T01:58:19.224Z,42.67
2018-04-16T02:01:06.010Z,43.10
2018-04-16T02:03:52.818Z,42.90
2018-04-16T02:06:39.706Z,43.67
2018-04-16T02:09:26.597Z,44.20
2018-04-16T02:12:13.214Z,52.53
2018-04-16T02:14:44.694Z,39.97
2018-04-16T02:17:32.866Z,42.80
2018-04-16T02:20:19.600Z,49.17
2018-04-16T02:23:06.435Z,39.90
2018-04-16T02:25:53.352Z,41.43
2018-04-16T02:28:40.162Z,44.87
2018-04-16T02:31:26.931Z,43.20
2018-04-16T02:34:14.042Z,43.27
2018-04-16T02:37:00.758Z,42.70
2018-04-16T02:39:47.218Z,44.97
2018-04-16T02:42:33.978Z,44.73
2018-04-16T02:45:20.768Z,52.50
2018-04-16T02:48:07.676Z,37.83
2018-04-16T02:50:54.536Z,43.67
2018-04-16T02:53:41.432Z,49.20
2018-04-16T02:56:28.068Z,37.90
2018-04-16T02:59:14.961Z,44.13
2018-04-16T03:02:01.488Z,46.87
2018-04-16T03:04:48.354Z,39.60
2018-04-16T03:07:35.188Z,50.53
2018-04-16T03:10:21.640Z,40.27
2018-04-16T03:13:08.131Z,44.70
2018-04-16T03:15:54.992Z,49.40
2018-04-16T03:18:41.793Z,52.87
2018-04-16T03:21:28.508Z,48.27
2018-04-16T03:24:15.193Z,49.03
2018-04-16T03:27:02.090Z,52.33
2018-04-16T03:32:44.619Z,52.23
2018-04-16T03:35:33.527Z,50.37
2018-04-16T03:38:20.206Z,52.27
2018-04-16T03:41:07.104Z,49.10
2018-04-16T03:43:53.490Z,53.00
2018-04-16T03:46:40.189Z,60.70
2018-04-16T03:49:29.031Z,56.67
2018-04-16T03:52:03.648Z,55.60
2018-04-16T03:54:32.246Z,58.33
2018-04-16T03:57:00.887Z,57.93
2018-04-16T03:59:29.483Z,57.57
2018-04-16T04:01:58.130Z,64.23
2018-04-16T04:04:26.739Z,61.43
2018-04-16T04:06:55.377Z,73.43
2018-04-16T04:09:23.989Z,62.40
2018-04-16T04:11:52.631Z,62.23
2018-04-16T04:14:21.250Z,57.07
2018-04-16T04:16:49.902Z,58.87
2018-04-16T04:19:18.505Z,58.73
2018-04-16T04:21:47.168Z,62.63
2018-04-16T04:24:52.924Z,75.57
2018-04-16T04:27:58.426Z,62.47
2018-04-16T04:30:38.623Z,59.70
2018-04-16T04:33:07.263Z,61.80
2018-04-16T04:35:37.880Z,65.13
2018-04-16T04:38:06.524Z,62.00
2018-04-16T04:40:35.132Z,56.20
2018-04-16T04:43:03.779Z,60.37
2018-04-16T04:45:33.247Z,66.20
2018-04-16T04:48:01.857Z,62.43
2018-04-16T04:50:31.109Z,60.67
2018-04-16T04:52:59.767Z,60.47
2018-04-16T04:55:28.359Z,55.17
2018-04-16T04:58:00.104Z,74.93
2018-04-16T05:00:28.768Z,72.97
2018-04-16T05:02:59.857Z,72.00
2018-04-16T05:05:28.493Z,70.07
2018-04-16T05:07:57.106Z,73.13
2018-04-16T05:10:25.788Z,73.23
2018-04-16T05:12:54.459Z,65.83
2018-04-16T05:15:23.034Z,64.93
2018-04-16T05:17:51.660Z,67.63
2018-04-16T05:20:20.260Z,69.17
2018-04-16T05:22:48.901Z,69.73
2018-04-16T05:25:17.519Z,71.20
2018-04-16T05:27:46.164Z,72.83
2018-04-16T05:30:14.781Z,73.40
2018-04-16T05:32:43.422Z,72.37
2018-04-16T05:35:12.033Z,66.90
2018-04-16T05:37:40.700Z,68.90
2018-04-16T05:40:09.305Z,70.67
2018-04-16T05:42:38.159Z,74.73
2018-04-16T05:45:06.764Z,63.90
2018-04-16T05:47:35.406Z,61.40
2018-04-16T05:50:04.018Z,82.50
2018-04-16T05:52:32.677Z,80.00
2018-04-16T05:55:01.295Z,64.80
2018-04-16T05:57:29.945Z,77.03
2018-04-16T05:59:58.566Z,77.30
2018-04-16T06:02:27.210Z,60.60
2018-04-16T06:04:55.835Z,69.60
2018-04-16T06:07:24.459Z,71.37
2018-04-16T06:09:53.116Z,56.23
2018-04-16T06:12:21.755Z,65.00
2018-04-16T06:14:50.400Z,63.43
2018-04-16T06:17:21.565Z,72.30
2018-04-16T06:19:50.215Z,73.27
2018-04-16T06:22:18.829Z,73.67
2018-04-16T06:24:48.473Z,66.33
2018-04-16T06:27:17.115Z,72.17
2018-04-16T06:29:45.733Z,76.57
2018-04-16T06:32:17.205Z,63.57
2018-04-16T06:34:43.012Z,73.27
2018-04-16T06:37:11.623Z,72.33
2018-04-16T06:39:40.279Z,100.20
2018-04-16T06:42:08.892Z,77.93
2018-04-16T06:44:37.661Z,82.37
2018-04-16T06:47:06.278Z,77.00
2018-04-16T06:49:34.948Z,77.67
2018-04-16T06:52:03.573Z,79.17
2018-04-16T06:54:32.219Z,67.97
2018-04-16T06:57:00.855Z,72.80
2018-04-16T06:59:29.508Z,75.53
2018-04-16T07:01:58.177Z,75.33
2018-04-16T07:04:26.760Z,77.30
2018-04-16T07:06:55.407Z,71.67
2018-04-16T07:09:24.038Z,71.07
2018-04-16T07:11:53.613Z,66.23
2018-04-16T07:14:22.241Z,62.73
2018-04-16T07:16:50.901Z,67.90
2018-04-16T07:19:19.525Z,67.50
2018-04-16T07:21:48.185Z,71.40
2018-04-16T07:24:16.870Z,61.43
2018-04-16T07:26:45.483Z,57.73
2018-04-16T07:29:14.100Z,69.55
2018-04-16T07:31:42.752Z,60.00
2018-04-16T07:34:11.368Z,68.35
2018-04-16T07:36:40.056Z,59.27
2018-04-16T07:39:08.689Z,65.53
2018-04-16T07:41:37.300Z,67.07
2018-04-16T07:44:05.973Z,59.30
2018-04-16T07:46:34.592Z,52.27
2018-04-16T07:49:03.246Z,52.17
2018-04-16T07:51:31.831Z,55.30
2018-04-16T07:54:00.470Z,51.23
2018-04-16T07:56:29.083Z,53.93
2018-04-16T07:58:57.732Z,48.23
2018-04-16T08:01:26.392Z,50.50
2018-04-16T08:03:54.996Z,49.33
2018-04-16T08:06:23.602Z,51.13
2018-04-16T08:08:52.207Z,46.53
2018-04-16T08:11:20.844Z,45.87
2018-04-16T08:13:49.449Z,45.40
2018-04-16T08:16:18.091Z,45.70
2018-04-16T08:18:46.695Z,43.13
2018-04-16T08:21:15.345Z,45.47
2018-04-16T08:23:43.963Z,43.13
2018-04-16T08:26:12.613Z,44.80
2018-04-16T08:28:41.219Z,40.50
2018-04-16T08:31:09.885Z,41.50
2018-04-16T08:33:38.491Z,39.30
2018-04-16T08:36:07.190Z,40.40
2018-04-16T08:38:35.809Z,42.53
2018-04-16T08:41:04.482Z,39.33
2018-04-16T08:43:33.092Z,37.03
2018-04-16T08:46:01.720Z,37.77
2018-04-16T08:48:30.363Z,37.40
2018-04-16T08:50:58.967Z,36.70
2018-04-16T08:53:27.607Z,36.17
2018-04-16T08:55:56.216Z,36.37
2018-04-16T08:58:24.861Z,35.87
2018-04-16T09:00:53.459Z,40.63
2018-04-16T09:03:22.105Z,42.13
2018-04-16T09:05:50.717Z,40.03
2018-04-16T09:08:19.362Z,35.80
2018-04-16T09:10:47.979Z,36.33
2018-04-16T09:13:16.624Z,35.27
2018-04-16T09:15:45.238Z,33.83
2018-04-16T09:18:13.875Z,33.40
2018-04-16T09:20:42.483Z,37.75
2018-04-16T09:23:11.126Z,32.13
2018-04-16T09:25:39.743Z,31.67
2018-04-16T09:28:08.357Z,32.00
2018-04-16T09:30:37.032Z,33.70
2018-04-16T09:33:05.638Z,32.30
2018-04-16T09:35:34.553Z,32.40
2018-04-16T09:38:03.172Z,32.45
2018-04-16T09:40:31.818Z,34.55
2018-04-16T09:43:01.820Z,32.08
2018-04-16T09:45:30.961Z,33.67
2018-04-16T09:47:59.584Z,37.17
2018-04-16T09:50:31.155Z,34.85
2018-04-16T09:52:59.767Z,34.47
2018-04-16T09:55:28.808Z,34.13
2018-04-16T09:57:57.432Z,35.78
2018-04-16T10:00:31.465Z,38.38
2018-04-16T10:03:02.810Z,30.73
2018-04-16T10:05:33.921Z,32.13
2018-04-16T10:08:02.590Z,29.90
2018-04-16T10:10:33.548Z,30.60
2018-04-16T10:13:03.607Z,30.15
2018-04-16T10:15:32.272Z,35.65
2018-04-16T10:18:02.527Z,30.17
2018-04-16T10:20:31.115Z,29.85
2018-04-16T10:23:02.015Z,33.38
2018-04-16T10:25:32.207Z,29.75
2018-04-16T10:28:04.072Z,30.77
2018-04-16T10:30:32.675Z,32.60
2018-04-16T10:33:01.310Z,29.42
2018-04-16T10:35:32.970Z,30.60
2018-04-16T10:38:04.162Z,31.67
2018-04-16T10:40:32.783Z,30.02
2018-04-16T10:43:01.751Z,28.83
2018-04-16T10:45:30.751Z,27.80
2018-04-16T10:47:59.711Z,29.48
2018-04-16T10:50:28.319Z,29.27
2018-04-16T10:52:58.465Z,28.25
2018-04-16T10:55:27.519Z,28.67
2018-04-16T10:57:56.145Z,29.25
2018-04-16T11:00:24.776Z,28.17
2018-04-16T11:02:53.429Z,28.58
2018-04-16T11:05:22.372Z,28.38
2018-04-16T11:07:51.016Z,26.90
2018-04-16T11:10:19.630Z,28.95
2018-04-16T11:12:49.264Z,26.75
2018-04-16T11:15:20.121Z,29.25
2018-04-16T11:17:48.761Z,30.50
2018-04-16T11:20:17.371Z,30.08
2018-04-16T11:22:46.037Z,34.42
2018-04-16T11:25:14.646Z,30.62
2018-04-16T11:27:43.249Z,32.78
2018-04-16T11:30:11.887Z,33.25
2018-04-16T11:32:40.491Z,34.00
2018-04-16T11:35:09.131Z,31.60
2018-04-16T11:37:37.739Z,32.00
2018-04-16T11:40:06.371Z,32.55
2018-04-16T11:42:34.977Z,30.48
2018-04-16T11:45:03.616Z,26.92
2018-04-16T11:47:32.228Z,27.58
2018-04-16T11:50:00.874Z,24.23
2018-04-16T11:52:29.477Z,24.23
2018-04-16T11:54:58.118Z,22.87
2018-04-16T11:57:26.748Z,24.15
2018-04-16T11:59:55.370Z,24.50
2018-04-16T12:02:23.974Z,26.85
2018-04-16T12:04:52.613Z,25.10
2018-04-16T12:07:21.234Z,23.48
2018-04-16T12:09:49.913Z,23.98
2018-04-16T12:12:18.529Z,24.95
2018-04-16T12:14:47.141Z,22.73
2018-04-16T12:17:15.778Z,20.30
2018-04-16T12:19:44.390Z,22.27
2018-04-16T12:22:13.035Z,24.60
2018-04-16T12:24:41.641Z,20.98
2018-04-16T12:27:10.283Z,18.95
2018-04-16T12:29:38.893Z,22.85
2018-04-16T12:32:07.538Z,19.15
2018-04-16T12:34:36.143Z,16.55
2018-04-16T12:37:04.786Z,18.48
2018-04-16T12:39:33.399Z,16.33
2018-04-16T12:42:02.039Z,16.15
2018-04-16T12:44:30.702Z,15.80
2018-04-16T12:46:59.342Z,18.60
2018-04-16T12:49:27.938Z,16.10
2018-04-16T12:51:56.581Z,17.40
2018-04-16T12:54:25.193Z,16.42
2018-04-16T12:56:53.831Z,15.30
2018-04-16T12:59:22.442Z,13.87
2018-04-16T13:01:51.129Z,14.23
2018-04-16T13:04:19.731Z,14.13
2018-04-16T13:06:48.336Z,15.13
2018-04-16T13:09:16.977Z,15.67
2018-04-16T13:11:45.592Z,14.10
2018-04-16T13:14:14.234Z,12.33
2018-04-16T13:16:42.845Z,9.50
2018-04-16T13:19:11.485Z,9.03
2018-04-16T13:21:42.043Z,7.87
2018-04-16T13:24:10.674Z,8.00
2018-04-16T13:26:39.273Z,7.78
2018-04-16T13:29:07.912Z,8.07
2018-04-16T13:31:36.515Z,7.10
2018-04-16T13:34:05.151Z,8.90
2018-04-16T13:36:33.762Z,8.87
2018-04-16T13:39:02.390Z,9.80
2018-04-16T13:41:30.988Z,9.60
2018-04-16T13:44:01.525Z,10.13
2018-04-16T13:46:36.288Z,9.70
2018-04-16T13:49:12.434Z,11.03
2018-04-16T13:51:45.391Z,10.57
2018-04-16T13:54:21.146Z,9.70
2018-04-16T13:56:50.583Z,10.30
2018-04-16T13:59:19.482Z,11.20
2018-04-16T14:01:49.244Z,12.17
2018-04-16T14:04:18.929Z,13.43
2018-04-16T14:06:48.517Z,11.77
2018-04-16T14:09:17.362Z,11.80
2018-04-16T14:11:46.862Z,13.17
2018-04-16T14:14:15.553Z,12.50
2018-04-16T14:16:44.200Z,12.97
2018-04-16T14:19:12.869Z,16.13
2018-04-16T14:21:41.509Z,14.63
2018-04-16T14:24:10.587Z,13.20
2018-04-16T14:26:39.847Z,11.77
2018-04-16T14:29:08.656Z,14.07
2018-04-16T14:31:37.751Z,14.70
2018-04-16T14:34:06.359Z,17.17
2018-04-16T14:36:35.572Z,13.57
2018-04-16T14:39:04.176Z,13.97
2018-04-16T14:41:33.245Z,12.40
2018-04-16T14:44:02.035Z,13.20
2018-04-16T14:46:33.004Z,12.03
2018-04-16T14:49:01.731Z,13.63
2018-04-16T14:51:30.334Z,16.00
2018-04-16T14:53:58.976Z,14.07
2018-04-16T14:56:27.585Z,12.50
2018-04-16T14:58:56.224Z,12.20
2018-04-16T15:01:24.865Z,11.83
2018-04-16T15:03:54.187Z,10.53
2018-04-16T15:06:25.114Z,11.10
2018-04-16T15:08:53.764Z,10.07
2018-04-16T15:11:22.369Z,10.17
2018-04-16T15:13:51.021Z,10.40
2018-04-16T15:16:19.631Z,10.37
2018-04-16T15:18:48.689Z,10.70
2018-04-16T15:21:17.295Z,9.33
2018-04-16T15:23:46.270Z,10.82
2018-04-16T15:26:14.883Z,10.50
2018-04-16T15:28:43.519Z,11.40
2018-04-16T15:31:12.127Z,11.63
2018-04-16T15:33:41.081Z,11.37
2018-04-16T15:36:09.690Z,10.70
2018-04-16T15:38:38.322Z,9.77
2018-04-16T15:41:06.923Z,10.47
2018-04-16T15:43:35.709Z,11.17
2018-04-16T15:46:04.436Z,10.57
2018-04-16T15:48:35.568Z,10.97
2018-04-16T15:51:04.991Z,10.17
2018-04-16T15:53:34.202Z,11.48
2018-04-16T15:56:03.444Z,9.40
2018-04-16T15:58:39.735Z,10.00
2018-04-16T16:01:08.995Z,9.70
2018-04-16T16:03:38.147Z,8.93
2018-04-16T16:06:07.516Z,9.33
2018-04-16T16:08:36.118Z,9.43
2018-04-16T16:11:04.755Z,9.03
2018-04-16T16:13:33.352Z,9.37
2018-04-16T16:16:01.984Z,9.27
2018-04-16T16:18:31.349Z,9.17
2018-04-16T16:20:59.919Z,8.80
2018-04-16T16:23:28.518Z,8.67
2018-04-16T16:25:57.146Z,9.03
2018-04-16T16:28:25.839Z,9.13
2018-04-16T16:30:54.478Z,9.35
2018-04-16T16:33:23.193Z,8.77
2018-04-16T16:35:53.328Z,9.30
2018-04-16T16:38:21.961Z,10.20
2018-04-16T16:40:51.251Z,8.80
2018-04-16T16:43:19.843Z,9.40
2018-04-16T16:45:48.968Z,10.73
2018-04-16T16:48:18.033Z,10.23
2018-04-16T16:50:47.052Z,10.80
2018-04-16T16:53:18.299Z,10.80
2018-04-16T16:58:37.500Z,12.23
2018-04-16T17:01:08.421Z,10.70
2018-04-16T17:03:39.440Z,10.50
2018-04-16T17:06:08.511Z,11.00
2018-04-16T17:08:37.152Z,11.03
2018-04-16T17:11:08.993Z,12.13
2018-04-16T17:13:39.813Z,13.43
2018-04-16T17:16:08.392Z,13.40
2018-04-16T17:18:37.557Z,14.60
2018-04-16T17:21:15.420Z,12.93
2018-04-16T17:23:44.395Z,11.73
2018-04-16T17:26:12.990Z,14.70
2018-04-16T17:28:42.071Z,13.10
2018-04-16T17:31:10.689Z,11.70
2018-04-16T17:33:39.541Z,13.93
2018-04-16T17:36:08.654Z,13.73
2018-04-16T17:38:40.408Z,15.50
2018-04-16T17:41:09.035Z,16.47
2018-04-16T17:43:37.645Z,15.40
2018-04-16T17:46:06.289Z,15.07
2018-04-16T17:48:34.926Z,10.97
2018-04-16T17:51:04.336Z,16.90
2018-04-16T17:53:35.176Z,17.10
2018-04-16T17:56:04.145Z,17.13
2018-04-16T17:58:33.134Z,15.57
2018-04-16T18:01:03.508Z,15.33
2018-04-16T18:03:32.251Z,13.17
2018-04-16T18:06:00.932Z,16.27
2018-04-16T18:08:36.770Z,21.37
2018-04-16T18:11:09.367Z,24.07
2018-04-16T18:13:38.739Z,17.63
2018-04-16T18:16:08.400Z,17.40
2018-04-16T18:18:46.656Z,19.57
2018-04-16T18:21:16.547Z,21.15
2018-04-16T18:24:05.337Z,25.00
2018-04-16T18:26:34.767Z,23.53
2018-04-16T18:29:03.301Z,19.60
2018-04-16T18:31:32.097Z,20.70
2018-04-16T18:34:08.951Z,25.17
2018-04-16T18:36:42.375Z,22.13
2018-04-16T18:39:14.481Z,22.60
2018-04-16T18:41:44.437Z,22.70
2018-04-16T18:44:13.312Z,23.30
2018-04-16T18:46:43.381Z,27.42
2018-04-16T18:49:12.293Z,23.23
2018-04-16T18:51:44.983Z,26.83
2018-04-16T18:54:14.435Z,20.63
2018-04-16T18:56:44.419Z,21.60
2018-04-16T18:59:13.900Z,23.00
2018-04-16T19:01:43.170Z,22.77
2018-04-16T19:04:12.476Z,22.30
2018-04-16T19:06:43.367Z,25.10
2018-04-16T19:09:12.770Z,24.50
2018-04-16T19:11:47.648Z,28.93
2018-04-16T19:14:17.875Z,30.07
2018-04-16T19:16:47.005Z,41.30
2018-04-16T19:19:16.527Z,38.83
2018-04-16T19:21:54.212Z,44.67
2018-04-16T19:24:23.486Z,47.13
2018-04-16T19:27:13.717Z,40.57
2018-04-16T19:29:42.708Z,33.60
2018-04-16T19:32:12.588Z,28.30
2018-04-16T19:34:59.399Z,31.60
2018-04-16T19:37:28.968Z,30.53
2018-04-16T19:39:58.563Z,26.47
2018-04-16T19:42:42.678Z,25.80
2018-04-16T19:45:14.099Z,27.60
2018-04-16T19:47:44.275Z,38.17
2018-04-16T19:50:13.517Z,32.87
2018-04-16T19:52:42.847Z,41.83
2018-04-16T19:55:11.951Z,47.17
2018-04-16T19:58:00.456Z,37.17
2018-04-16T20:00:29.735Z,43.83
2018-04-16T20:03:16.819Z,34.17
2018-04-16T20:05:46.265Z,45.00
2018-04-16T20:08:15.718Z,47.87
2018-04-16T20:10:44.878Z,52.90
2018-04-16T20:13:13.823Z,62.30
2018-04-16T20:15:44.191Z,75.97
2018-04-16T20:18:18.552Z,66.20
2018-04-16T20:20:48.460Z,58.63
2018-04-16T20:23:18.379Z,68.00
2018-04-16T20:26:05.112Z,61.67
2018-04-16T20:28:34.576Z,55.60
2018-04-16T20:31:03.291Z,57.63
2018-04-16T20:33:33.131Z,60.83
2018-04-16T20:36:02.655Z,61.80
2018-04-16T20:38:31.638Z,62.63
2018-04-16T20:41:00.595Z,72.13
2018-04-16T20:43:29.925Z,68.93
2018-04-16T20:46:01.575Z,50.20
2018-04-16T20:48:30.750Z,66.33
2018-04-16T20:50:59.815Z,62.70
2018-04-16T20:53:28.626Z,65.27
2018-04-16T20:55:57.469Z,55.20
2018-04-16T20:58:26.706Z,47.27
2018-04-16T21:00:56.197Z,58.42
2018-04-16T21:03:25.182Z,53.17
2018-04-16T21:05:54.314Z,48.63
2018-04-16T21:08:25.457Z,43.23
2018-04-16T21:10:54.448Z,41.37
2018-04-16T21:13:24.506Z,44.50
2018-04-16T21:15:53.855Z,52.10
2018-04-16T21:18:23.019Z,80.47
2018-04-16T21:20:51.695Z,59.90
2018-04-16T21:23:20.353Z,75.23
2018-04-16T21:25:49.513Z,82.70
2018-04-16T21:28:20.324Z,66.70
2018-04-16T21:30:50.731Z,82.50
2018-04-16T21:33:19.843Z,68.53
2018-04-16T21:35:49.901Z,73.90
2018-04-16T21:38:18.554Z,71.40
2018-04-16T21:40:47.429Z,69.80
2018-04-16T21:43:16.286Z,55.97
2018-04-16T21:45:49.258Z,57.28
2018-04-16T21:48:18.876Z,55.13
2018-04-16T21:50:48.454Z,53.13
2018-04-16T21:53:19.584Z,56.70
2018-04-16T21:55:51.638Z,44.33
2018-04-16T21:58:20.811Z,48.60
2018-04-16T22:00:53.091Z,54.43
2018-04-16T22:03:24.667Z,47.13
2018-04-16T22:05:54.503Z,39.07
2018-04-16T22:08:23.116Z,34.90
2018-04-16T22:10:59.043Z,36.73
2018-04-16T22:13:28.965Z,46.97
2018-04-16T22:15:58.972Z,37.00
2018-04-16T22:18:27.619Z,34.70
2018-04-16T22:20:56.310Z,45.93
2018-04-16T22:23:25.038Z,43.97
2018-04-16T22:25:53.690Z,48.28
2018-04-16T22:28:22.372Z,45.37
2018-04-16T22:30:51.918Z,34.07
2018-04-16T22:33:20.606Z,45.90
2018-04-16T22:35:49.239Z,35.23
2018-04-16T22:38:18.902Z,38.83
2018-04-16T22:40:47.675Z,45.23
2018-04-16T22:43:17.284Z,39.93
2018-04-16T22:45:45.941Z,44.27
2018-04-16T22:48:14.610Z,43.57
2018-04-16T22:50:43.263Z,49.67
2018-04-16T22:53:11.938Z,41.03
2018-04-16T22:55:40.609Z,46.47
2018-04-16T22:58:11.711Z,43.83
2018-04-16T23:00:40.353Z,44.53
2018-04-16T23:03:09.069Z,46.73
2018-04-16T23:05:37.765Z,40.10
2018-04-16T23:08:06.409Z,49.33
2018-04-16T23:10:35.079Z,50.63
2018-04-16T23:13:03.719Z,42.63
2018-04-16T23:15:32.394Z,47.07
2018-04-16T23:18:01.038Z,46.40
2018-04-16T23:20:29.720Z,50.20
2018-04-16T23:22:58.377Z,41.90
2018-04-16T23:25:27.053Z,48.83
2018-04-16T23:27:55.751Z,49.38
2018-04-16T23:30:24.423Z,37.70
2018-04-16T23:32:53.361Z,48.20
2018-04-16T23:35:22.181Z,49.17
2018-04-16T23:37:52.392Z,45.07
2018-04-16T23:40:24.315Z,41.23
2018-04-16T23:42:53.658Z,50.57
2018-04-16T23:45:22.658Z,41.40
2018-04-16T23:47:51.636Z,44.93
2018-04-16T23:50:24.582Z,46.70
2018-04-16T23:52:53.534Z,43.53
2018-04-16T23:55:26.732Z,46.63
2018-04-16T23:57:55.712Z,45.13
